LFBZ/BIQ METAR and TAF weather

Enter ICAO airport designator
Station Type Date Time Source
LFBZ METAR 2019/07/18 11:30 UTC NOAA

LFBZ 181130Z AUTO 32009KT 280V010 9999 FEW030 SCT160 BKN220 22/15 Q1019 NOSIG


Station Type Date Time Source
LFBZ Decoded METAR 2019/07/18 11:30 UTC NOAA

Biarritz, France (LFBZ) 43-28N 001-32W 71M
Jul 18, 2019 - 07:30 AM EDT / 2019.07.18 1130 UTC
Wind: from the NW (320 degrees) at 10 MPH (9 KT) (direction variable):0
Visibility: greater than 7 mile(s):0
Sky conditions: mostly cloudy
Temperature: 71 F (22 C)
Dew Point: 59 F (15 C)
Relative Humidity: 64%
Pressure (altimeter): 30.09 in. Hg (1019 hPa)
ob: LFBZ 181130Z AUTO 32009KT 280V010 9999 FEW030 SCT160 BKN220 22/15 Q1019 NOSIG
cycle: 11

Station Type Date Time Source
LFBZ TAF 2019/07/18 06:10 UTC NOAA

TAF LFBZ 180500Z 1806/1906 30008KT 9999 FEW025 BKN040 PROB30
TEMPO 1806/1809 OVC015
BECMG 1811/1813 CAVOK
BECMG 1821/1823 16005KT BKN020

Example: see airport list